sensor_id;sensor_type;location;lat;lon;timestamp;temperature;humidity
10046;DHT22;5063;50.878;4.742;2022-12-18T00:01:20;-3.50;99.90
10046;DHT22;5063;50.878;4.742;2022-12-18T00:03:47;-3.40;99.90
10046;DHT22;5063;50.878;4.742;2022-12-18T00:06:13;-3.30;99.90
10046;DHT22;5063;50.878;4.742;2022-12-18T00:08:40;-3.20;99.90
10046;DHT22;5063;50.878;4.742;2022-12-18T00:11:12;-3.10;99.90
10046;DHT22;5063;50.878;4.742;2022-12-18T00:13:38;-3.10;99.90
10046;DHT22;5063;50.878;4.742;2022-12-18T00:16:27;-3.30;99.90
10046;DHT22;5063;50.878;4.742;2022-12-18T00:18:53;-3.30;99.90
10046;DHT22;5063;50.878;4.742;2022-12-18T00:21:19;-3.40;99.90
10046;DHT22;5063;50.878;4.742;2022-12-18T00:23:46;-3.10;99.90
10046;DHT22;5063;50.878;4.742;2022-12-18T00:26:14;-3.30;99.90
10046;DHT22;5063;50.878;4.742;2022-12-18T00:28:44;-3.30;99.90
10046;DHT22;5063;50.878;4.742;2022-12-18T00:31:13;-3.30;99.90
10046;DHT22;5063;50.878;4.742;2022-12-18T00:33:39;-3.50;99.90
10046;DHT22;5063;50.878;4.742;2022-12-18T00:36:10;-3.30;99.90
10046;DHT22;5063;50.878;4.742;2022-12-18T00:38:37;-3.50;99.90
10046;DHT22;5063;50.878;4.742;2022-12-18T00:41:07;-3.70;99.90
10046;DHT22;5063;50.878;4.742;2022-12-18T00:43:33;-3.70;99.90
10046;DHT22;5063;50.878;4.742;2022-12-18T00:46:01;-3.90;99.90
10046;DHT22;5063;50.878;4.742;2022-12-18T00:48:27;-3.80;99.90
10046;DHT22;5063;50.878;4.742;2022-12-18T00:50:52;-4.10;99.90
10046;DHT22;5063;50.878;4.742;2022-12-18T00:53:18;-3.90;99.90
10046;DHT22;5063;50.878;4.742;2022-12-18T00:55:45;-3.90;99.90
10046;DHT22;5063;50.878;4.742;2022-12-18T00:58:12;-3.60;99.90
10046;DHT22;5063;50.878;4.742;2022-12-18T01:00:38;-3.40;99.90
10046;DHT22;5063;50.878;4.742;2022-12-18T01:03:05;-3.30;99.90
10046;DHT22;5063;50.878;4.742;2022-12-18T01:05:31;-3.20;99.90
10046;DHT22;5063;50.878;4.742;2022-12-18T01:07:57;-3.70;99.90
10046;DHT22;5063;50.878;4.742;2022-12-18T01:10:24;-3.70;99.90
10046;DHT22;5063;50.878;4.742;2022-12-18T01:12:50;-3.30;99.90
10046;DHT22;5063;50.878;4.742;2022-12-18T01:15:17;-3.20;99.90
10046;DHT22;5063;50.878;4.742;2022-12-18T01:17:43;-3.10;99.90
10046;DHT22;5063;50.878;4.742;2022-12-18T01:20:11;-3.30;99.90
10046;DHT22;5063;50.878;4.742;2022-12-18T01:22:37;-3.00;99.90
10046;DHT22;5063;50.878;4.742;2022-12-18T01:25:03;-3.40;99.90
10046;DHT22;5063;50.878;4.742;2022-12-18T01:27:30;-3.40;99.90
10046;DHT22;5063;50.878;4.742;2022-12-18T01:29:55;-3.10;99.90
10046;DHT22;5063;50.878;4.742;2022-12-18T01:32:22;-3.20;99.90
10046;DHT22;5063;50.878;4.742;2022-12-18T01:34:48;-3.30;99.90
10046;DHT22;5063;50.878;4.742;2022-12-18T01:37:13;-3.60;99.90
10046;DHT22;5063;50.878;4.742;2022-12-18T01:39:39;-3.60;99.90
10046;DHT22;5063;50.878;4.742;2022-12-18T01:42:11;-3.70;99.90
10046;DHT22;5063;50.878;4.742;2022-12-18T01:49:48;-4.00;99.90
10046;DHT22;5063;50.878;4.742;2022-12-18T01:52:14;-3.80;99.90
10046;DHT22;5063;50.878;4.742;2022-12-18T01:54:40;-3.90;99.90
10046;DHT22;5063;50.878;4.742;2022-12-18T01:57:06;-4.00;99.90
10046;DHT22;5063;50.878;4.742;2022-12-18T01:59:33;-4.30;99.90
10046;DHT22;5063;50.878;4.742;2022-12-18T02:01:59;-3.90;99.90
10046;DHT22;5063;50.878;4.742;2022-12-18T02:04:27;-4.30;99.90
10046;DHT22;5063;50.878;4.742;2022-12-18T02:09:50;-4.30;99.90
10046;DHT22;5063;50.878;4.742;2022-12-18T02:12:20;-4.50;99.90
10046;DHT22;5063;50.878;4.742;2022-12-18T02:14:54;-4.50;99.90
10046;DHT22;5063;50.878;4.742;2022-12-18T02:17:26;-4.60;99.90
10046;DHT22;5063;50.878;4.742;2022-12-18T02:20:22;-4.60;99.90
10046;DHT22;5063;50.878;4.742;2022-12-18T02:28:33;-4.80;99.90
10046;DHT22;5063;50.878;4.742;2022-12-18T02:31:02;-5.10;99.90
10046;DHT22;5063;50.878;4.742;2022-12-18T02:33:30;-5.20;99.90
10046;DHT22;5063;50.878;4.742;2022-12-18T02:35:58;-4.90;99.90
10046;DHT22;5063;50.878;4.742;2022-12-18T02:38:25;-5.30;99.90
10046;DHT22;5063;50.878;4.742;2022-12-18T02:40:51;-5.10;99.90
10046;DHT22;5063;50.878;4.742;2022-12-18T02:43:18;-5.20;99.90
10046;DHT22;5063;50.878;4.742;2022-12-18T02:45:58;-5.10;99.90
10046;DHT22;5063;50.878;4.742;2022-12-18T02:48:30;-5.30;99.90
10046;DHT22;5063;50.878;4.742;2022-12-18T02:51:28;-5.10;99.90
10046;DHT22;5063;50.878;4.742;2022-12-18T02:54:10;-5.20;99.90
10046;DHT22;5063;50.878;4.742;2022-12-18T02:56:46;-5.40;99.90
10046;DHT22;5063;50.878;4.742;2022-12-18T02:59:21;-5.10;99.90
10046;DHT22;5063;50.878;4.742;2022-12-18T03:04:25;-5.40;99.90
10046;DHT22;5063;50.878;4.742;2022-12-18T03:06:56;-5.40;99.90
10046;DHT22;5063;50.878;4.742;2022-12-18T03:09:46;-5.40;99.90
10046;DHT22;5063;50.878;4.742;2022-12-18T03:12:37;-5.50;99.90
10046;DHT22;5063;50.878;4.742;2022-12-18T03:15:22;-5.40;99.90
10046;DHT22;5063;50.878;4.742;2022-12-18T03:18:01;-5.40;99.90
10046;DHT22;5063;50.878;4.742;2022-12-18T03:20:29;-5.70;99.90
10046;DHT22;5063;50.878;4.742;2022-12-18T03:23:02;-5.70;99.90
10046;DHT22;5063;50.878;4.742;2022-12-18T03:25:30;-5.70;99.90
10046;DHT22;5063;50.878;4.742;2022-12-18T03:27:59;-5.50;99.90
10046;DHT22;5063;50.878;4.742;2022-12-18T03:30:28;-5.70;99.90
10046;DHT22;5063;50.878;4.742;2022-12-18T03:33:18;-5.60;99.90
10046;DHT22;5063;50.878;4.742;2022-12-18T03:35:45;-5.50;99.90
10046;DHT22;5063;50.878;4.742;2022-12-18T03:38:12;-5.40;99.90
10046;DHT22;5063;50.878;4.742;2022-12-18T03:40:48;-5.40;99.90
10046;DHT22;5063;50.878;4.742;2022-12-18T03:45:55;-5.60;99.90
10046;DHT22;5063;50.878;4.742;2022-12-18T03:48:33;-5.60;99.90
10046;DHT22;5063;50.878;4.742;2022-12-18T03:51:09;-5.80;99.90
10046;DHT22;5063;50.878;4.742;2022-12-18T03:53:47;-6.30;99.90
10046;DHT22;5063;50.878;4.742;2022-12-18T03:56:16;-5.70;99.90
10046;DHT22;5063;50.878;4.742;2022-12-18T03:58:43;-5.90;99.90
10046;DHT22;5063;50.878;4.742;2022-12-18T04:01:12;-5.80;99.90
10046;DHT22;5063;50.878;4.742;2022-12-18T04:03:39;-5.80;99.90
10046;DHT22;5063;50.878;4.742;2022-12-18T04:06:06;-5.90;99.90
10046;DHT22;5063;50.878;4.742;2022-12-18T04:08:33;-5.90;99.90
10046;DHT22;5063;50.878;4.742;2022-12-18T04:11:00;-5.60;99.90
10046;DHT22;5063;50.878;4.742;2022-12-18T04:13:34;-5.90;99.90
10046;DHT22;5063;50.878;4.742;2022-12-18T04:16:00;-5.70;99.90
10046;DHT22;5063;50.878;4.742;2022-12-18T04:18:26;-6.00;99.90
10046;DHT22;5063;50.878;4.742;2022-12-18T04:20:52;-5.80;99.90
10046;DHT22;5063;50.878;4.742;2022-12-18T04:23:18;-6.00;99.90
10046;DHT22;5063;50.878;4.742;2022-12-18T04:25:43;-5.90;99.90
10046;DHT22;5063;50.878;4.742;2022-12-18T04:28:09;-6.00;99.90
10046;DHT22;5063;50.878;4.742;2022-12-18T04:30:35;-6.10;99.90
10046;DHT22;5063;50.878;4.742;2022-12-18T04:33:00;-6.10;99.90
10046;DHT22;5063;50.878;4.742;2022-12-18T04:35:26;-6.00;99.90
10046;DHT22;5063;50.878;4.742;2022-12-18T04:37:52;-6.20;99.90
10046;DHT22;5063;50.878;4.742;2022-12-18T04:40:18;-6.20;99.90
10046;DHT22;5063;50.878;4.742;2022-12-18T04:42:44;-6.20;99.90
10046;DHT22;5063;50.878;4.742;2022-12-18T04:45:09;-6.00;99.90
10046;DHT22;5063;50.878;4.742;2022-12-18T04:47:35;-6.20;99.90
10046;DHT22;5063;50.878;4.742;2022-12-18T04:50:01;-6.00;99.90
10046;DHT22;5063;50.878;4.742;2022-12-18T04:52:27;-6.20;99.90
10046;DHT22;5063;50.878;4.742;2022-12-18T04:54:52;-6.20;99.90
10046;DHT22;5063;50.878;4.742;2022-12-18T04:57:18;-6.00;99.90
10046;DHT22;5063;50.878;4.742;2022-12-18T04:59:44;-6.10;99.90
10046;DHT22;5063;50.878;4.742;2022-12-18T05:02:10;-6.20;99.90
10046;DHT22;5063;50.878;4.742;2022-12-18T05:04:36;-6.10;99.90
10046;DHT22;5063;50.878;4.742;2022-12-18T05:07:02;-6.00;99.90
10046;DHT22;5063;50.878;4.742;2022-12-18T05:09:27;-5.90;99.90
10046;DHT22;5063;50.878;4.742;2022-12-18T05:11:53;-5.60;99.90
10046;DHT22;5063;50.878;4.742;2022-12-18T05:14:19;-5.90;99.90
10046;DHT22;5063;50.878;4.742;2022-12-18T05:16:45;-5.80;99.90
10046;DHT22;5063;50.878;4.742;2022-12-18T05:19:10;-5.90;99.90
10046;DHT22;5063;50.878;4.742;2022-12-18T05:21:36;-5.90;99.90
10046;DHT22;5063;50.878;4.742;2022-12-18T05:24:02;-5.80;99.90
10046;DHT22;5063;50.878;4.742;2022-12-18T05:26:28;-6.00;99.90
10046;DHT22;5063;50.878;4.742;2022-12-18T05:28:53;-5.90;99.90
10046;DHT22;5063;50.878;4.742;2022-12-18T05:31:19;-6.00;99.90
10046;DHT22;5063;50.878;4.742;2022-12-18T05:33:45;-6.00;99.90
10046;DHT22;5063;50.878;4.742;2022-12-18T05:36:10;-6.10;99.90
10046;DHT22;5063;50.878;4.742;2022-12-18T05:38:38;-6.10;99.90
10046;DHT22;5063;50.878;4.742;2022-12-18T05:41:05;-5.90;99.90
10046;DHT22;5063;50.878;4.742;2022-12-18T05:43:31;-6.50;99.90
10046;DHT22;5063;50.878;4.742;2022-12-18T05:46:07;-6.00;99.90
10046;DHT22;5063;50.878;4.742;2022-12-18T05:48:33;-6.10;99.90
10046;DHT22;5063;50.878;4.742;2022-12-18T05:51:07;-5.90;99.90
10046;DHT22;5063;50.878;4.742;2022-12-18T05:53:33;-6.00;99.90
10046;DHT22;5063;50.878;4.742;2022-12-18T05:56:04;-6.00;99.90
10046;DHT22;5063;50.878;4.742;2022-12-18T05:58:30;-6.00;99.90
10046;DHT22;5063;50.878;4.742;2022-12-18T06:00:56;-6.20;99.90
10046;DHT22;5063;50.878;4.742;2022-12-18T06:03:22;-5.90;99.90
10046;DHT22;5063;50.878;4.742;2022-12-18T06:05:48;-6.30;99.90
10046;DHT22;5063;50.878;4.742;2022-12-18T06:08:14;-6.10;99.90
10046;DHT22;5063;50.878;4.742;2022-12-18T06:10:40;-6.10;99.90
10046;DHT22;5063;50.878;4.742;2022-12-18T06:13:06;-6.40;99.90
10046;DHT22;5063;50.878;4.742;2022-12-18T06:15:32;-6.30;99.90
10046;DHT22;5063;50.878;4.742;2022-12-18T06:17:59;-6.00;99.90
10046;DHT22;5063;50.878;4.742;2022-12-18T06:20:25;-6.40;99.90
10046;DHT22;5063;50.878;4.742;2022-12-18T06:22:51;-6.30;99.90
10046;DHT22;5063;50.878;4.742;2022-12-18T06:25:17;-6.30;99.90
10046;DHT22;5063;50.878;4.742;2022-12-18T06:27:42;-6.20;99.90
10046;DHT22;5063;50.878;4.742;2022-12-18T06:30:09;-6.40;99.90
10046;DHT22;5063;50.878;4.742;2022-12-18T06:32:34;-6.20;99.90
10046;DHT22;5063;50.878;4.742;2022-12-18T06:35:00;-6.10;99.90
10046;DHT22;5063;50.878;4.742;2022-12-18T06:37:26;-6.30;99.90
10046;DHT22;5063;50.878;4.742;2022-12-18T06:39:53;-6.20;99.90
10046;DHT22;5063;50.878;4.742;2022-12-18T06:42:19;-6.20;99.90
10046;DHT22;5063;50.878;4.742;2022-12-18T06:44:44;-6.00;99.90
10046;DHT22;5063;50.878;4.742;2022-12-18T06:47:10;-6.20;99.90
10046;DHT22;5063;50.878;4.742;2022-12-18T06:49:36;-6.00;99.90
10046;DHT22;5063;50.878;4.742;2022-12-18T06:52:01;-6.00;99.90
10046;DHT22;5063;50.878;4.742;2022-12-18T06:54:27;-6.10;99.90
10046;DHT22;5063;50.878;4.742;2022-12-18T06:56:52;-5.90;99.90
10046;DHT22;5063;50.878;4.742;2022-12-18T06:59:18;-5.80;99.90
10046;DHT22;5063;50.878;4.742;2022-12-18T07:01:44;-5.80;99.90
10046;DHT22;5063;50.878;4.742;2022-12-18T07:04:10;-5.80;99.90
10046;DHT22;5063;50.878;4.742;2022-12-18T07:06:35;-5.70;99.90
10046;DHT22;5063;50.878;4.742;2022-12-18T07:09:01;-5.70;99.90
10046;DHT22;5063;50.878;4.742;2022-12-18T07:11:27;-5.70;99.90
10046;DHT22;5063;50.878;4.742;2022-12-18T07:13:53;-5.80;99.90
10046;DHT22;5063;50.878;4.742;2022-12-18T07:16:21;-5.70;99.90
10046;DHT22;5063;50.878;4.742;2022-12-18T07:18:46;-5.60;99.90
10046;DHT22;5063;50.878;4.742;2022-12-18T07:21:15;-5.50;99.90
10046;DHT22;5063;50.878;4.742;2022-12-18T07:23:41;-5.30;99.90
10046;DHT22;5063;50.878;4.742;2022-12-18T07:26:09;-5.30;99.90
10046;DHT22;5063;50.878;4.742;2022-12-18T07:28:36;-5.20;99.90
10046;DHT22;5063;50.878;4.742;2022-12-18T07:31:03;-5.10;99.90
10046;DHT22;5063;50.878;4.742;2022-12-18T07:33:30;-4.90;99.90
10046;DHT22;5063;50.878;4.742;2022-12-18T07:35:55;-4.80;99.90
10046;DHT22;5063;50.878;4.742;2022-12-18T07:38:21;-4.80;99.90
10046;DHT22;5063;50.878;4.742;2022-12-18T07:40:47;-4.60;99.90
10046;DHT22;5063;50.878;4.742;2022-12-18T07:43:13;-4.60;99.90
10046;DHT22;5063;50.878;4.742;2022-12-18T07:45:38;-4.70;99.90
10046;DHT22;5063;50.878;4.742;2022-12-18T07:48:04;-4.80;99.90
10046;DHT22;5063;50.878;4.742;2022-12-18T07:50:30;-5.00;99.90
10046;DHT22;5063;50.878;4.742;2022-12-18T07:52:56;-4.70;99.90
10046;DHT22;5063;50.878;4.742;2022-12-18T07:55:21;-5.00;99.90
10046;DHT22;5063;50.878;4.742;2022-12-18T07:57:47;-5.00;99.90
10046;DHT22;5063;50.878;4.742;2022-12-18T08:00:13;-4.90;99.90
10046;DHT22;5063;50.878;4.742;2022-12-18T08:02:39;-4.60;99.90
10046;DHT22;5063;50.878;4.742;2022-12-18T08:05:05;-4.90;99.90
10046;DHT22;5063;50.878;4.742;2022-12-18T08:07:31;-4.60;99.90
10046;DHT22;5063;50.878;4.742;2022-12-18T08:09:56;-4.30;99.90
10046;DHT22;5063;50.878;4.742;2022-12-18T08:12:23;-4.40;99.90
10046;DHT22;5063;50.878;4.742;2022-12-18T08:14:48;-4.40;99.90
10046;DHT22;5063;50.878;4.742;2022-12-18T08:17:14;-4.30;99.90
10046;DHT22;5063;50.878;4.742;2022-12-18T08:19:40;-4.00;99.90
10046;DHT22;5063;50.878;4.742;2022-12-18T08:22:05;-3.80;99.90
10046;DHT22;5063;50.878;4.742;2022-12-18T08:24:31;-3.70;99.90
10046;DHT22;5063;50.878;4.742;2022-12-18T08:26:57;-3.70;99.90
10046;DHT22;5063;50.878;4.742;2022-12-18T08:29:23;-3.60;99.90
10046;DHT22;5063;50.878;4.742;2022-12-18T08:31:48;-3.60;99.90
10046;DHT22;5063;50.878;4.742;2022-12-18T08:34:14;-3.40;99.90
10046;DHT22;5063;50.878;4.742;2022-12-18T08:36:40;-3.10;99.90
10046;DHT22;5063;50.878;4.742;2022-12-18T08:39:06;-3.90;99.90
10046;DHT22;5063;50.878;4.742;2022-12-18T08:41:31;-3.00;99.90
10046;DHT22;5063;50.878;4.742;2022-12-18T08:43:57;-3.20;99.90
10046;DHT22;5063;50.878;4.742;2022-12-18T08:46:42;-3.00;99.90
10046;DHT22;5063;50.878;4.742;2022-12-18T08:49:09;-3.20;99.90
10046;DHT22;5063;50.878;4.742;2022-12-18T08:51:35;-3.10;99.90
10046;DHT22;5063;50.878;4.742;2022-12-18T08:54:02;-3.50;99.90
10046;DHT22;5063;50.878;4.742;2022-12-18T08:56:28;-2.90;99.90
10046;DHT22;5063;50.878;4.742;2022-12-18T08:58:54;-2.70;99.90
10046;DHT22;5063;50.878;4.742;2022-12-18T09:01:21;-2.80;99.90
10046;DHT22;5063;50.878;4.742;2022-12-18T09:03:48;-2.30;99.90
10046;DHT22;5063;50.878;4.742;2022-12-18T09:06:19;-2.60;99.90
10046;DHT22;5063;50.878;4.742;2022-12-18T09:08:44;-2.40;99.90
10046;DHT22;5063;50.878;4.742;2022-12-18T09:11:20;-2.20;99.90
10046;DHT22;5063;50.878;4.742;2022-12-18T09:13:46;-2.20;99.90
10046;DHT22;5063;50.878;4.742;2022-12-18T09:16:11;-2.10;99.90
10046;DHT22;5063;50.878;4.742;2022-12-18T09:18:37;-2.10;99.90
10046;DHT22;5063;50.878;4.742;2022-12-18T09:21:11;-2.10;99.90
10046;DHT22;5063;50.878;4.742;2022-12-18T09:23:37;-2.00;99.90
10046;DHT22;5063;50.878;4.742;2022-12-18T09:26:02;-2.00;99.90
10046;DHT22;5063;50.878;4.742;2022-12-18T09:28:28;-1.50;99.90
10046;DHT22;5063;50.878;4.742;2022-12-18T09:30:54;-1.40;99.90
10046;DHT22;5063;50.878;4.742;2022-12-18T09:33:19;-1.60;99.90
10046;DHT22;5063;50.878;4.742;2022-12-18T09:35:46;-1.50;99.90
10046;DHT22;5063;50.878;4.742;2022-12-18T09:38:15;-1.20;99.90
10046;DHT22;5063;50.878;4.742;2022-12-18T09:40:50;-1.10;99.90
10046;DHT22;5063;50.878;4.742;2022-12-18T09:43:28;-1.20;99.90
10046;DHT22;5063;50.878;4.742;2022-12-18T09:46:08;-1.00;99.90
10046;DHT22;5063;50.878;4.742;2022-12-18T09:48:40;-1.10;99.90
10046;DHT22;5063;50.878;4.742;2022-12-18T09:51:16;-1.10;99.90
10046;DHT22;5063;50.878;4.742;2022-12-18T09:53:55;-1.80;99.90
10046;DHT22;5063;50.878;4.742;2022-12-18T09:56:22;-1.30;99.90
10046;DHT22;5063;50.878;4.742;2022-12-18T10:01:42;-1.20;99.90
10046;DHT22;5063;50.878;4.742;2022-12-18T10:04:08;-1.30;99.90
10046;DHT22;5063;50.878;4.742;2022-12-18T10:06:57;-1.20;99.90
10046;DHT22;5063;50.878;4.742;2022-12-18T10:09:38;-1.00;99.90
10046;DHT22;5063;50.878;4.742;2022-12-18T10:14:50;-0.80;99.90
10046;DHT22;5063;50.878;4.742;2022-12-18T10:25:51;-0.30;99.90
10046;DHT22;5063;50.878;4.742;2022-12-18T10:28:19;0.10;99.90
10046;DHT22;5063;50.878;4.742;2022-12-18T10:30:46;-0.10;99.90
10046;DHT22;5063;50.878;4.742;2022-12-18T10:33:18;-0.20;99.90
10046;DHT22;5063;50.878;4.742;2022-12-18T10:35:45;-0.10;99.90
10046;DHT22;5063;50.878;4.742;2022-12-18T10:41:02;-0.10;99.90
10046;DHT22;5063;50.878;4.742;2022-12-18T10:43:31;-0.10;99.90
10046;DHT22;5063;50.878;4.742;2022-12-18T10:48:25;0.10;99.90
10046;DHT22;5063;50.878;4.742;2022-12-18T10:50:52;0.10;99.90
10046;DHT22;5063;50.878;4.742;2022-12-18T10:53:29;0.30;99.90
10046;DHT22;5063;50.878;4.742;2022-12-18T10:56:02;0.30;99.90
10046;DHT22;5063;50.878;4.742;2022-12-18T10:58:31;0.50;99.90
10046;DHT22;5063;50.878;4.742;2022-12-18T11:01:16;0.20;99.90
10046;DHT22;5063;50.878;4.742;2022-12-18T11:03:44;0.40;99.90
10046;DHT22;5063;50.878;4.742;2022-12-18T11:06:19;0.60;99.90
10046;DHT22;5063;50.878;4.742;2022-12-18T11:09:04;0.60;99.90
10046;DHT22;5063;50.878;4.742;2022-12-18T11:11:32;0.60;99.90
10046;DHT22;5063;50.878;4.742;2022-12-18T11:14:03;0.70;99.90
10046;DHT22;5063;50.878;4.742;2022-12-18T11:16:34;0.80;99.90
10046;DHT22;5063;50.878;4.742;2022-12-18T11:19:32;0.90;99.90
10046;DHT22;5063;50.878;4.742;2022-12-18T11:21:58;1.00;99.90
10046;DHT22;5063;50.878;4.742;2022-12-18T11:24:30;0.90;99.90
10046;DHT22;5063;50.878;4.742;2022-12-18T11:27:05;1.20;99.90
10046;DHT22;5063;50.878;4.742;2022-12-18T11:29:34;1.20;99.90
10046;DHT22;5063;50.878;4.742;2022-12-18T11:32:26;1.30;99.90
10046;DHT22;5063;50.878;4.742;2022-12-18T11:37:28;1.50;99.90
10046;DHT22;5063;50.878;4.742;2022-12-18T11:40:15;1.60;99.90
10046;DHT22;5063;50.878;4.742;2022-12-18T11:42:56;1.50;99.90
10046;DHT22;5063;50.878;4.742;2022-12-18T11:45:34;1.50;99.90
10046;DHT22;5063;50.878;4.742;2022-12-18T11:48:17;1.60;99.90
10046;DHT22;5063;50.878;4.742;2022-12-18T11:50:55;1.50;99.90
10046;DHT22;5063;50.878;4.742;2022-12-18T11:53:22;1.40;99.90
10046;DHT22;5063;50.878;4.742;2022-12-18T11:58:54;1.20;99.90
10046;DHT22;5063;50.878;4.742;2022-12-18T12:01:52;1.40;99.90
10046;DHT22;5063;50.878;4.742;2022-12-18T12:04:48;1.50;99.90
10046;DHT22;5063;50.878;4.742;2022-12-18T12:07:26;1.50;99.90
10046;DHT22;5063;50.878;4.742;2022-12-18T12:10:18;1.60;99.90
10046;DHT22;5063;50.878;4.742;2022-12-18T12:16:08;1.80;99.90
10046;DHT22;5063;50.878;4.742;2022-12-18T12:18:51;2.00;99.90
10046;DHT22;5063;50.878;4.742;2022-12-18T12:21:25;2.30;99.90
10046;DHT22;5063;50.878;4.742;2022-12-18T12:24:16;2.10;99.90
10046;DHT22;5063;50.878;4.742;2022-12-18T12:26:53;2.00;99.90
10046;DHT22;5063;50.878;4.742;2022-12-18T12:33:01;2.10;99.90
10046;DHT22;5063;50.878;4.742;2022-12-18T12:38:28;2.00;99.90
10046;DHT22;5063;50.878;4.742;2022-12-18T12:41:04;2.20;99.90
10046;DHT22;5063;50.878;4.742;2022-12-18T12:43:35;2.20;99.90
10046;DHT22;5063;50.878;4.742;2022-12-18T12:46:10;2.30;99.90
10046;DHT22;5063;50.878;4.742;2022-12-18T12:48:51;2.40;99.90
10046;DHT22;5063;50.878;4.742;2022-12-18T12:51:26;2.20;99.90
10046;DHT22;5063;50.878;4.742;2022-12-18T12:53:58;2.30;99.90
10046;DHT22;5063;50.878;4.742;2022-12-18T12:56:36;2.40;99.90
10046;DHT22;5063;50.878;4.742;2022-12-18T13:02:44;2.40;99.90
10046;DHT22;5063;50.878;4.742;2022-12-18T13:05:34;2.40;99.90
10046;DHT22;5063;50.878;4.742;2022-12-18T13:08:09;2.50;99.90
10046;DHT22;5063;50.878;4.742;2022-12-18T13:10:37;2.40;99.90
10046;DHT22;5063;50.878;4.742;2022-12-18T13:13:07;2.60;99.90
10046;DHT22;5063;50.878;4.742;2022-12-18T13:25:57;2.70;99.90
10046;DHT22;5063;50.878;4.742;2022-12-18T13:31:59;2.70;99.90
10046;DHT22;5063;50.878;4.742;2022-12-18T13:34:20;2.50;99.90
10046;DHT22;5063;50.878;4.742;2022-12-18T13:36:46;2.50;99.90
10046;DHT22;5063;50.878;4.742;2022-12-18T13:41:42;2.10;99.90
10046;DHT22;5063;50.878;4.742;2022-12-18T13:44:36;2.80;99.90
10046;DHT22;5063;50.878;4.742;2022-12-18T13:47:04;2.80;99.90
10046;DHT22;5063;50.878;4.742;2022-12-18T13:49:41;2.80;99.90
10046;DHT22;5063;50.878;4.742;2022-12-18T13:52:21;2.80;99.90
10046;DHT22;5063;50.878;4.742;2022-12-18T13:55:01;2.40;99.90
10046;DHT22;5063;50.878;4.742;2022-12-18T13:57:38;2.50;99.90
10046;DHT22;5063;50.878;4.742;2022-12-18T14:02:49;2.30;99.90
10046;DHT22;5063;50.878;4.742;2022-12-18T14:05:25;2.50;99.90
10046;DHT22;5063;50.878;4.742;2022-12-18T14:07:52;2.30;99.90
10046;DHT22;5063;50.878;4.742;2022-12-18T14:10:19;2.50;99.90
10046;DHT22;5063;50.878;4.742;2022-12-18T14:12:47;2.40;99.90
10046;DHT22;5063;50.878;4.742;2022-12-18T14:20:44;2.20;99.90
10046;DHT22;5063;50.878;4.742;2022-12-18T14:23:33;2.20;99.90
10046;DHT22;5063;50.878;4.742;2022-12-18T14:26:00;2.20;99.90
10046;DHT22;5063;50.878;4.742;2022-12-18T14:28:26;2.10;99.90
10046;DHT22;5063;50.878;4.742;2022-12-18T14:30:53;2.10;99.90
10046;DHT22;5063;50.878;4.742;2022-12-18T14:33:24;2.20;99.90
10046;DHT22;5063;50.878;4.742;2022-12-18T14:35:59;2.00;99.90
10046;DHT22;5063;50.878;4.742;2022-12-18T14:38:36;2.20;99.90
10046;DHT22;5063;50.878;4.742;2022-12-18T14:41:05;2.40;99.90
10046;DHT22;5063;50.878;4.742;2022-12-18T14:43:34;2.50;99.90
10046;DHT22;5063;50.878;4.742;2022-12-18T14:46:01;2.20;99.90
10046;DHT22;5063;50.878;4.742;2022-12-18T14:48:37;2.20;99.90
10046;DHT22;5063;50.878;4.742;2022-12-18T14:53:47;2.10;99.90
10046;DHT22;5063;50.878;4.742;2022-12-18T14:56:28;1.90;99.90
10046;DHT22;5063;50.878;4.742;2022-12-18T14:58:57;2.00;99.90
10046;DHT22;5063;50.878;4.742;2022-12-18T15:03:55;2.00;99.90
10046;DHT22;5063;50.878;4.742;2022-12-18T15:06:26;2.10;99.90
10046;DHT22;5063;50.878;4.742;2022-12-18T15:08:53;2.10;99.90
10046;DHT22;5063;50.878;4.742;2022-12-18T15:13:52;1.90;99.90
10046;DHT22;5063;50.878;4.742;2022-12-18T15:16:18;2.20;99.90
10046;DHT22;5063;50.878;4.742;2022-12-18T15:18:44;1.90;99.90
10046;DHT22;5063;50.878;4.742;2022-12-18T15:21:14;1.90;99.90
10046;DHT22;5063;50.878;4.742;2022-12-18T15:23:46;2.20;99.90
10046;DHT22;5063;50.878;4.742;2022-12-18T15:26:15;2.20;99.90
10046;DHT22;5063;50.878;4.742;2022-12-18T15:33:59;2.10;99.90
10046;DHT22;5063;50.878;4.742;2022-12-18T15:36:26;2.00;99.90
10046;DHT22;5063;50.878;4.742;2022-12-18T15:38:53;2.00;99.90
10046;DHT22;5063;50.878;4.742;2022-12-18T15:41:21;1.80;99.90
10046;DHT22;5063;50.878;4.742;2022-12-18T15:43:51;1.80;99.90
10046;DHT22;5063;50.878;4.742;2022-12-18T15:46:19;1.80;99.90
10046;DHT22;5063;50.878;4.742;2022-12-18T15:48:48;1.90;99.90
10046;DHT22;5063;50.878;4.742;2022-12-18T15:51:28;1.50;99.90
10046;DHT22;5063;50.878;4.742;2022-12-18T15:53:56;1.70;99.90
10046;DHT22;5063;50.878;4.742;2022-12-18T15:56:24;1.70;99.90
10046;DHT22;5063;50.878;4.742;2022-12-18T15:59:13;1.30;99.90
10046;DHT22;5063;50.878;4.742;2022-12-18T16:01:39;1.70;99.90
10046;DHT22;5063;50.878;4.742;2022-12-18T16:04:05;1.90;99.90
10046;DHT22;5063;50.878;4.742;2022-12-18T16:06:31;1.70;99.90
10046;DHT22;5063;50.878;4.742;2022-12-18T16:08:57;1.90;99.90
10046;DHT22;5063;50.878;4.742;2022-12-18T16:11:24;1.80;99.90
10046;DHT22;5063;50.878;4.742;2022-12-18T16:16:40;2.00;99.90
10046;DHT22;5063;50.878;4.742;2022-12-18T16:19:07;1.90;99.90
10046;DHT22;5063;50.878;4.742;2022-12-18T16:21:33;1.80;99.90
10046;DHT22;5063;50.878;4.742;2022-12-18T16:23:58;1.90;99.90
10046;DHT22;5063;50.878;4.742;2022-12-18T16:26:24;1.90;99.90
10046;DHT22;5063;50.878;4.742;2022-12-18T16:28:50;1.90;99.90
10046;DHT22;5063;50.878;4.742;2022-12-18T16:31:15;1.50;99.90
10046;DHT22;5063;50.878;4.742;2022-12-18T16:33:41;1.90;99.90
10046;DHT22;5063;50.878;4.742;2022-12-18T16:36:07;2.30;99.90
10046;DHT22;5063;50.878;4.742;2022-12-18T16:38:33;2.00;99.90
10046;DHT22;5063;50.878;4.742;2022-12-18T16:40:59;2.00;99.90
10046;DHT22;5063;50.878;4.742;2022-12-18T16:43:43;2.00;99.90
10046;DHT22;5063;50.878;4.742;2022-12-18T16:46:08;2.00;99.90
10046;DHT22;5063;50.878;4.742;2022-12-18T16:48:34;1.80;99.90
10046;DHT22;5063;50.878;4.742;2022-12-18T16:51:02;2.00;99.90
10046;DHT22;5063;50.878;4.742;2022-12-18T16:53:28;2.10;99.90
10046;DHT22;5063;50.878;4.742;2022-12-18T16:55:55;2.10;99.90
10046;DHT22;5063;50.878;4.742;2022-12-18T16:58:21;2.10;99.90
10046;DHT22;5063;50.878;4.742;2022-12-18T17:00:47;2.20;99.90
10046;DHT22;5063;50.878;4.742;2022-12-18T17:03:13;2.10;99.90
10046;DHT22;5063;50.878;4.742;2022-12-18T17:05:39;2.00;99.90
10046;DHT22;5063;50.878;4.742;2022-12-18T17:08:04;2.20;99.90
10046;DHT22;5063;50.878;4.742;2022-12-18T17:10:30;2.20;99.90
10046;DHT22;5063;50.878;4.742;2022-12-18T17:12:56;2.10;99.90
10046;DHT22;5063;50.878;4.742;2022-12-18T17:15:22;2.10;99.90
10046;DHT22;5063;50.878;4.742;2022-12-18T17:17:47;2.10;99.90
10046;DHT22;5063;50.878;4.742;2022-12-18T17:20:13;2.40;99.90
10046;DHT22;5063;50.878;4.742;2022-12-18T17:22:39;2.00;99.90
10046;DHT22;5063;50.878;4.742;2022-12-18T17:25:05;2.10;99.90
10046;DHT22;5063;50.878;4.742;2022-12-18T17:27:30;2.10;99.90
10046;DHT22;5063;50.878;4.742;2022-12-18T17:29:56;2.40;99.90
10046;DHT22;5063;50.878;4.742;2022-12-18T17:32:22;2.20;99.90
10046;DHT22;5063;50.878;4.742;2022-12-18T17:34:47;2.20;99.90
10046;DHT22;5063;50.878;4.742;2022-12-18T17:37:13;2.20;99.90
10046;DHT22;5063;50.878;4.742;2022-12-18T17:39:39;2.20;99.90
10046;DHT22;5063;50.878;4.742;2022-12-18T17:42:04;2.30;99.90
10046;DHT22;5063;50.878;4.742;2022-12-18T17:44:31;2.20;99.90